sensor_id;sensor_type;location;lat;lon;timestamp;temperature;humidity
23301;DHT22;11819;51.394;12.340;2023-05-02T00:00:30;13.80;83.20
23301;DHT22;11819;51.394;12.340;2023-05-02T00:02:56;13.70;83.30
23301;DHT22;11819;51.394;12.340;2023-05-02T00:05:23;13.70;83.30
23301;DHT22;11819;51.394;12.340;2023-05-02T00:07:51;13.70;83.50
23301;DHT22;11819;51.394;12.340;2023-05-02T00:10:18;13.60;83.70
23301;DHT22;11819;51.394;12.340;2023-05-02T00:12:45;13.60;83.80
23301;DHT22;11819;51.394;12.340;2023-05-02T00:15:11;13.50;84.00
23301;DHT22;11819;51.394;12.340;2023-05-02T00:17:39;13.50;84.10
23301;DHT22;11819;51.394;12.340;2023-05-02T00:20:07;13.40;84.30
23301;DHT22;11819;51.394;12.340;2023-05-02T00:22:36;13.40;84.50
23301;DHT22;11819;51.394;12.340;2023-05-02T00:25:02;13.30;85.60
23301;DHT22;11819;51.394;12.340;2023-05-02T00:27:29;13.30;85.00
23301;DHT22;11819;51.394;12.340;2023-05-02T00:29:56;13.20;85.10
23301;DHT22;11819;51.394;12.340;2023-05-02T00:32:23;13.20;85.30
23301;DHT22;11819;51.394;12.340;2023-05-02T00:34:49;13.20;85.40
23301;DHT22;11819;51.394;12.340;2023-05-02T00:37:14;13.10;85.60
23301;DHT22;11819;51.394;12.340;2023-05-02T00:39:40;13.10;85.60
23301;DHT22;11819;51.394;12.340;2023-05-02T00:42:06;13.00;85.80
23301;DHT22;11819;51.394;12.340;2023-05-02T00:44:32;13.00;85.90
23301;DHT22;11819;51.394;12.340;2023-05-02T00:46:57;13.00;85.90
23301;DHT22;11819;51.394;12.340;2023-05-02T00:49:25;13.00;85.80
23301;DHT22;11819;51.394;12.340;2023-05-02T00:51:52;13.00;85.90
23301;DHT22;11819;51.394;12.340;2023-05-02T00:54:18;13.00;86.00
23301;DHT22;11819;51.394;12.340;2023-05-02T00:56:43;12.90;86.10
23301;DHT22;11819;51.394;12.340;2023-05-02T00:59:12;12.80;86.10
23301;DHT22;11819;51.394;12.340;2023-05-02T01:02:03;12.80;86.30
23301;DHT22;11819;51.394;12.340;2023-05-02T01:07:20;12.80;86.60
23301;DHT22;11819;51.394;12.340;2023-05-02T01:12:27;12.60;86.80
23301;DHT22;11819;51.394;12.340;2023-05-02T01:14:55;12.60;87.10
23301;DHT22;11819;51.394;12.340;2023-05-02T01:17:29;12.60;87.00
23301;DHT22;11819;51.394;12.340;2023-05-02T01:20:04;12.60;87.00
23301;DHT22;11819;51.394;12.340;2023-05-02T01:22:31;12.60;86.90
23301;DHT22;11819;51.394;12.340;2023-05-02T01:30:48;12.60;86.60
23301;DHT22;11819;51.394;12.340;2023-05-02T01:33:16;12.60;86.50
23301;DHT22;11819;51.394;12.340;2023-05-02T01:35:43;12.60;86.50
23301;DHT22;11819;51.394;12.340;2023-05-02T01:38:13;12.60;86.50
23301;DHT22;11819;51.394;12.340;2023-05-02T01:40:41;12.60;86.30
23301;DHT22;11819;51.394;12.340;2023-05-02T01:43:11;12.60;86.20
23301;DHT22;11819;51.394;12.340;2023-05-02T01:45:40;12.60;85.90
23301;DHT22;11819;51.394;12.340;2023-05-02T01:48:08;12.70;85.90
23301;DHT22;11819;51.394;12.340;2023-05-02T01:50:35;12.70;85.70
23301;DHT22;11819;51.394;12.340;2023-05-02T01:53:02;12.70;85.70
23301;DHT22;11819;51.394;12.340;2023-05-02T01:55:32;12.70;85.50
23301;DHT22;11819;51.394;12.340;2023-05-02T01:58:01;12.70;85.50
23301;DHT22;11819;51.394;12.340;2023-05-02T02:00:28;12.70;85.40
23301;DHT22;11819;51.394;12.340;2023-05-02T02:02:56;12.70;85.30
23301;DHT22;11819;51.394;12.340;2023-05-02T02:05:23;12.70;85.40
23301;DHT22;11819;51.394;12.340;2023-05-02T02:07:49;12.70;85.50
23301;DHT22;11819;51.394;12.340;2023-05-02T02:10:16;12.70;85.50
23301;DHT22;11819;51.394;12.340;2023-05-02T02:12:53;12.70;85.50
23301;DHT22;11819;51.394;12.340;2023-05-02T02:15:27;12.70;85.70
23301;DHT22;11819;51.394;12.340;2023-05-02T02:20:21;12.70;86.00
23301;DHT22;11819;51.394;12.340;2023-05-02T02:22:47;12.70;86.30
23301;DHT22;11819;51.394;12.340;2023-05-02T02:25:15;12.70;86.50
23301;DHT22;11819;51.394;12.340;2023-05-02T02:27:42;12.70;86.70
23301;DHT22;11819;51.394;12.340;2023-05-02T02:30:09;12.70;87.10
23301;DHT22;11819;51.394;12.340;2023-05-02T02:32:36;12.70;87.30
23301;DHT22;11819;51.394;12.340;2023-05-02T02:35:03;12.70;87.40
23301;DHT22;11819;51.394;12.340;2023-05-02T02:37:35;12.70;87.60
23301;DHT22;11819;51.394;12.340;2023-05-02T02:40:22;12.70;87.70
23301;DHT22;11819;51.394;12.340;2023-05-02T02:43:15;12.70;87.70
23301;DHT22;11819;51.394;12.340;2023-05-02T02:46:13;12.70;87.80
23301;DHT22;11819;51.394;12.340;2023-05-02T02:49:08;12.70;88.10
23301;DHT22;11819;51.394;12.340;2023-05-02T02:51:43;12.70;88.20
23301;DHT22;11819;51.394;12.340;2023-05-02T03:02:27;12.60;88.70
23301;DHT22;11819;51.394;12.340;2023-05-02T03:04:54;12.60;89.00
23301;DHT22;11819;51.394;12.340;2023-05-02T03:07:21;12.60;89.00
23301;DHT22;11819;51.394;12.340;2023-05-02T03:09:48;12.60;89.10
23301;DHT22;11819;51.394;12.340;2023-05-02T03:12:20;12.60;89.20
23301;DHT22;11819;51.394;12.340;2023-05-02T03:14:47;12.60;89.00
23301;DHT22;11819;51.394;12.340;2023-05-02T03:17:13;12.50;89.00
23301;DHT22;11819;51.394;12.340;2023-05-02T03:19:40;12.60;89.20
23301;DHT22;11819;51.394;12.340;2023-05-02T03:22:05;12.60;89.10
23301;DHT22;11819;51.394;12.340;2023-05-02T03:24:33;12.60;89.00
23301;DHT22;11819;51.394;12.340;2023-05-02T03:26:59;12.60;89.00
23301;DHT22;11819;51.394;12.340;2023-05-02T03:29:32;12.60;88.90
23301;DHT22;11819;51.394;12.340;2023-05-02T03:31:57;12.60;88.80
23301;DHT22;11819;51.394;12.340;2023-05-02T03:34:23;12.70;88.80
23301;DHT22;11819;51.394;12.340;2023-05-02T03:36:51;12.70;88.80
23301;DHT22;11819;51.394;12.340;2023-05-02T03:39:17;12.70;88.80
23301;DHT22;11819;51.394;12.340;2023-05-02T03:41:44;12.60;88.90
23301;DHT22;11819;51.394;12.340;2023-05-02T03:44:15;12.70;88.90
23301;DHT22;11819;51.394;12.340;2023-05-02T03:46:41;12.70;88.80
23301;DHT22;11819;51.394;12.340;2023-05-02T03:49:10;12.70;88.70
23301;DHT22;11819;51.394;12.340;2023-05-02T03:51:37;12.70;88.60
23301;DHT22;11819;51.394;12.340;2023-05-02T03:54:03;12.80;88.60
23301;DHT22;11819;51.394;12.340;2023-05-02T03:56:30;12.80;88.50
23301;DHT22;11819;51.394;12.340;2023-05-02T03:59:09;12.80;88.50
23301;DHT22;11819;51.394;12.340;2023-05-02T04:01:36;12.80;88.40
23301;DHT22;11819;51.394;12.340;2023-05-02T04:04:03;12.80;88.50
23301;DHT22;11819;51.394;12.340;2023-05-02T04:06:34;12.70;88.60
23301;DHT22;11819;51.394;12.340;2023-05-02T04:09:03;12.70;88.90
23301;DHT22;11819;51.394;12.340;2023-05-02T04:11:36;12.70;88.90
23301;DHT22;11819;51.394;12.340;2023-05-02T04:14:03;12.70;88.90
23301;DHT22;11819;51.394;12.340;2023-05-02T04:16:29;12.80;88.90
23301;DHT22;11819;51.394;12.340;2023-05-02T04:18:55;12.80;88.80
23301;DHT22;11819;51.394;12.340;2023-05-02T04:21:21;12.80;88.70
23301;DHT22;11819;51.394;12.340;2023-05-02T04:23:47;12.70;88.70
23301;DHT22;11819;51.394;12.340;2023-05-02T04:26:13;12.60;88.70
23301;DHT22;11819;51.394;12.340;2023-05-02T04:28:52;12.70;88.80
23301;DHT22;11819;51.394;12.340;2023-05-02T04:31:18;12.60;88.60
23301;DHT22;11819;51.394;12.340;2023-05-02T04:33:44;12.60;88.70
23301;DHT22;11819;51.394;12.340;2023-05-02T04:36:14;12.70;88.80
23301;DHT22;11819;51.394;12.340;2023-05-02T04:38:43;12.70;88.80
23301;DHT22;11819;51.394;12.340;2023-05-02T04:41:09;12.80;88.60
23301;DHT22;11819;51.394;12.340;2023-05-02T04:43:40;12.80;88.40
23301;DHT22;11819;51.394;12.340;2023-05-02T04:46:06;12.80;88.30
23301;DHT22;11819;51.394;12.340;2023-05-02T04:48:36;12.80;88.40
23301;DHT22;11819;51.394;12.340;2023-05-02T04:51:07;12.80;88.20
23301;DHT22;11819;51.394;12.340;2023-05-02T04:53:35;12.80;88.20
23301;DHT22;11819;51.394;12.340;2023-05-02T04:56:00;12.90;88.10
23301;DHT22;11819;51.394;12.340;2023-05-02T04:58:26;13.00;88.00
23301;DHT22;11819;51.394;12.340;2023-05-02T05:01:02;13.10;87.80
23301;DHT22;11819;51.394;12.340;2023-05-02T05:03:28;13.10;87.70
23301;DHT22;11819;51.394;12.340;2023-05-02T05:05:55;13.10;87.40
23301;DHT22;11819;51.394;12.340;2023-05-02T05:08:22;13.10;87.50
23301;DHT22;11819;51.394;12.340;2023-05-02T05:10:49;13.00;87.50
23301;DHT22;11819;51.394;12.340;2023-05-02T05:13:16;13.00;87.70
23301;DHT22;11819;51.394;12.340;2023-05-02T05:15:43;13.00;87.70
23301;DHT22;11819;51.394;12.340;2023-05-02T05:18:09;13.10;87.70
23301;DHT22;11819;51.394;12.340;2023-05-02T05:20:37;13.10;87.70
23301;DHT22;11819;51.394;12.340;2023-05-02T05:23:03;13.10;88.00
23301;DHT22;11819;51.394;12.340;2023-05-02T05:25:29;13.00;88.20
23301;DHT22;11819;51.394;12.340;2023-05-02T05:27:58;13.00;88.50
23301;DHT22;11819;51.394;12.340;2023-05-02T05:30:24;13.00;88.60
23301;DHT22;11819;51.394;12.340;2023-05-02T05:32:52;13.00;88.70
23301;DHT22;11819;51.394;12.340;2023-05-02T05:35:18;13.00;88.90
23301;DHT22;11819;51.394;12.340;2023-05-02T05:37:43;13.00;89.00
23301;DHT22;11819;51.394;12.340;2023-05-02T05:40:12;13.10;89.00
23301;DHT22;11819;51.394;12.340;2023-05-02T05:42:40;13.10;88.90
23301;DHT22;11819;51.394;12.340;2023-05-02T05:45:12;13.20;88.90
23301;DHT22;11819;51.394;12.340;2023-05-02T05:47:38;13.20;88.70
23301;DHT22;11819;51.394;12.340;2023-05-02T05:50:05;13.20;88.70
23301;DHT22;11819;51.394;12.340;2023-05-02T05:52:31;13.20;88.70
23301;DHT22;11819;51.394;12.340;2023-05-02T05:54:59;13.30;88.50
23301;DHT22;11819;51.394;12.340;2023-05-02T05:57:26;13.30;88.30
23301;DHT22;11819;51.394;12.340;2023-05-02T05:59:53;13.30;88.20
23301;DHT22;11819;51.394;12.340;2023-05-02T06:02:20;13.20;88.00
23301;DHT22;11819;51.394;12.340;2023-05-02T06:04:46;13.20;88.30
23301;DHT22;11819;51.394;12.340;2023-05-02T06:07:15;13.20;88.60
23301;DHT22;11819;51.394;12.340;2023-05-02T06:09:40;13.10;88.70
23301;DHT22;11819;51.394;12.340;2023-05-02T06:12:06;13.10;88.90
23301;DHT22;11819;51.394;12.340;2023-05-02T06:14:33;13.10;89.30
23301;DHT22;11819;51.394;12.340;2023-05-02T06:17:01;13.10;89.50
23301;DHT22;11819;51.394;12.340;2023-05-02T06:19:27;13.10;89.60
23301;DHT22;11819;51.394;12.340;2023-05-02T06:21:52;13.00;89.70
23301;DHT22;11819;51.394;12.340;2023-05-02T06:24:18;13.00;90.00
23301;DHT22;11819;51.394;12.340;2023-05-02T06:26:44;13.00;90.00
23301;DHT22;11819;51.394;12.340;2023-05-02T06:29:10;13.10;90.10
23301;DHT22;11819;51.394;12.340;2023-05-02T06:31:36;13.20;90.10
23301;DHT22;11819;51.394;12.340;2023-05-02T06:34:01;13.20;90.10
23301;DHT22;11819;51.394;12.340;2023-05-02T06:36:28;13.10;90.00
23301;DHT22;11819;51.394;12.340;2023-05-02T06:38:54;13.10;90.10
23301;DHT22;11819;51.394;12.340;2023-05-02T06:41:20;13.10;90.00
23301;DHT22;11819;51.394;12.340;2023-05-02T06:43:46;13.10;90.20
23301;DHT22;11819;51.394;12.340;2023-05-02T06:46:12;13.00;90.00
23301;DHT22;11819;51.394;12.340;2023-05-02T06:48:38;13.10;90.10
23301;DHT22;11819;51.394;12.340;2023-05-02T06:51:04;13.00;90.10
23301;DHT22;11819;51.394;12.340;2023-05-02T06:53:30;13.00;90.30
23301;DHT22;11819;51.394;12.340;2023-05-02T06:55:56;13.00;90.40
23301;DHT22;11819;51.394;12.340;2023-05-02T06:58:23;13.00;90.20
23301;DHT22;11819;51.394;12.340;2023-05-02T07:00:49;13.00;90.50
23301;DHT22;11819;51.394;12.340;2023-05-02T07:03:14;13.00;90.40
23301;DHT22;11819;51.394;12.340;2023-05-02T07:05:41;13.00;90.40
23301;DHT22;11819;51.394;12.340;2023-05-02T07:08:07;13.10;90.40
23301;DHT22;11819;51.394;12.340;2023-05-02T07:10:33;13.10;90.20
23301;DHT22;11819;51.394;12.340;2023-05-02T07:12:59;13.10;90.20
23301;DHT22;11819;51.394;12.340;2023-05-02T07:15:26;13.20;89.90
23301;DHT22;11819;51.394;12.340;2023-05-02T07:17:51;13.10;89.50
23301;DHT22;11819;51.394;12.340;2023-05-02T07:20:17;13.20;89.90
23301;DHT22;11819;51.394;12.340;2023-05-02T07:22:44;13.20;90.00
23301;DHT22;11819;51.394;12.340;2023-05-02T07:25:09;13.30;90.00
23301;DHT22;11819;51.394;12.340;2023-05-02T07:27:36;13.40;90.00
23301;DHT22;11819;51.394;12.340;2023-05-02T07:30:01;13.40;89.80
23301;DHT22;11819;51.394;12.340;2023-05-02T07:32:27;13.50;89.70
23301;DHT22;11819;51.394;12.340;2023-05-02T07:34:53;13.50;89.50
23301;DHT22;11819;51.394;12.340;2023-05-02T07:37:19;13.50;89.30
23301;DHT22;11819;51.394;12.340;2023-05-02T07:39:45;13.60;89.30
23301;DHT22;11819;51.394;12.340;2023-05-02T07:42:11;13.60;89.10
23301;DHT22;11819;51.394;12.340;2023-05-02T07:44:37;13.60;88.70
23301;DHT22;11819;51.394;12.340;2023-05-02T07:47:02;13.60;88.90
23301;DHT22;11819;51.394;12.340;2023-05-02T07:49:28;13.50;89.50
23301;DHT22;11819;51.394;12.340;2023-05-02T07:51:54;13.50;90.00
23301;DHT22;11819;51.394;12.340;2023-05-02T07:54:21;13.50;90.00
23301;DHT22;11819;51.394;12.340;2023-05-02T07:56:47;13.50;90.10
23301;DHT22;11819;51.394;12.340;2023-05-02T07:59:14;13.60;90.00
23301;DHT22;11819;51.394;12.340;2023-05-02T08:01:40;13.60;89.90
23301;DHT22;11819;51.394;12.340;2023-05-02T08:04:06;13.60;90.10
23301;DHT22;11819;51.394;12.340;2023-05-02T08:06:32;13.40;91.10
23301;DHT22;11819;51.394;12.340;2023-05-02T08:08:58;13.10;92.10
23301;DHT22;11819;51.394;12.340;2023-05-02T08:11:24;13.00;93.00
23301;DHT22;11819;51.394;12.340;2023-05-02T08:13:53;12.80;94.00
23301;DHT22;11819;51.394;12.340;2023-05-02T08:16:19;12.60;94.50
23301;DHT22;11819;51.394;12.340;2023-05-02T08:18:45;12.50;94.90
23301;DHT22;11819;51.394;12.340;2023-05-02T08:21:11;12.50;95.40
23301;DHT22;11819;51.394;12.340;2023-05-02T08:23:37;12.50;95.60
23301;DHT22;11819;51.394;12.340;2023-05-02T08:26:03;12.50;95.70
23301;DHT22;11819;51.394;12.340;2023-05-02T08:28:31;12.50;96.10
23301;DHT22;11819;51.394;12.340;2023-05-02T08:30:57;12.60;95.70
23301;DHT22;11819;51.394;12.340;2023-05-02T08:33:22;12.60;95.80
23301;DHT22;11819;51.394;12.340;2023-05-02T08:35:48;12.60;96.00
23301;DHT22;11819;51.394;12.340;2023-05-02T08:38:15;12.70;96.10
23301;DHT22;11819;51.394;12.340;2023-05-02T08:40:41;12.70;96.20
23301;DHT22;11819;51.394;12.340;2023-05-02T08:43:07;12.70;96.10
23301;DHT22;11819;51.394;12.340;2023-05-02T08:45:41;12.70;96.20
23301;DHT22;11819;51.394;12.340;2023-05-02T08:48:08;12.80;96.40
23301;DHT22;11819;51.394;12.340;2023-05-02T08:50:40;12.90;96.00
23301;DHT22;11819;51.394;12.340;2023-05-02T08:53:08;12.90;95.90
23301;DHT22;11819;51.394;12.340;2023-05-02T08:55:35;13.00;95.90
23301;DHT22;11819;51.394;12.340;2023-05-02T08:58:04;13.10;95.80
23301;DHT22;11819;51.394;12.340;2023-05-02T09:00:41;13.10;95.40
23301;DHT22;11819;51.394;12.340;2023-05-02T09:06:08;13.20;95.30
23301;DHT22;11819;51.394;12.340;2023-05-02T09:08:36;13.30;95.50
23301;DHT22;11819;51.394;12.340;2023-05-02T09:11:03;13.40;95.30
23301;DHT22;11819;51.394;12.340;2023-05-02T09:13:36;13.50;95.20
23301;DHT22;11819;51.394;12.340;2023-05-02T09:18:42;13.80;94.50
23301;DHT22;11819;51.394;12.340;2023-05-02T09:21:10;13.80;93.50
23301;DHT22;11819;51.394;12.340;2023-05-02T09:23:44;13.80;93.40
23301;DHT22;11819;51.394;12.340;2023-05-02T09:26:11;13.80;93.40
23301;DHT22;11819;51.394;12.340;2023-05-02T09:28:47;13.80;93.80
23301;DHT22;11819;51.394;12.340;2023-05-02T09:31:19;13.80;93.30
23301;DHT22;11819;51.394;12.340;2023-05-02T09:33:46;13.80;93.40
23301;DHT22;11819;51.394;12.340;2023-05-02T09:36:17;13.70;92.90
23301;DHT22;11819;51.394;12.340;2023-05-02T09:38:46;13.60;93.00
23301;DHT22;11819;51.394;12.340;2023-05-02T09:41:12;13.50;93.20
23301;DHT22;11819;51.394;12.340;2023-05-02T09:43:38;13.50;93.30
23301;DHT22;11819;51.394;12.340;2023-05-02T09:46:09;13.50;93.70
23301;DHT22;11819;51.394;12.340;2023-05-02T09:51:24;13.70;94.20
23301;DHT22;11819;51.394;12.340;2023-05-02T09:53:51;13.70;94.00
23301;DHT22;11819;51.394;12.340;2023-05-02T09:56:18;13.80;93.80
23301;DHT22;11819;51.394;12.340;2023-05-02T09:58:43;13.90;93.90
23301;DHT22;11819;51.394;12.340;2023-05-02T10:01:19;14.10;93.40
23301;DHT22;11819;51.394;12.340;2023-05-02T10:03:48;14.20;93.00
23301;DHT22;11819;51.394;12.340;2023-05-02T10:06:18;14.20;92.30
23301;DHT22;11819;51.394;12.340;2023-05-02T10:08:44;14.30;92.70
23301;DHT22;11819;51.394;12.340;2023-05-02T10:11:12;14.40;92.70
23301;DHT22;11819;51.394;12.340;2023-05-02T10:13:39;14.50;92.90
23301;DHT22;11819;51.394;12.340;2023-05-02T10:16:07;14.60;92.20
23301;DHT22;11819;51.394;12.340;2023-05-02T10:18:55;14.80;91.80
23301;DHT22;11819;51.394;12.340;2023-05-02T10:21:26;14.90;91.00
23301;DHT22;11819;51.394;12.340;2023-05-02T10:23:52;14.90;91.00
23301;DHT22;11819;51.394;12.340;2023-05-02T10:26:18;15.00;90.90
23301;DHT22;11819;51.394;12.340;2023-05-02T10:28:46;15.00;90.60
23301;DHT22;11819;51.394;12.340;2023-05-02T10:31:13;15.00;90.60
23301;DHT22;11819;51.394;12.340;2023-05-02T10:33:40;15.10;90.70
23301;DHT22;11819;51.394;12.340;2023-05-02T10:36:08;15.10;90.80
23301;DHT22;11819;51.394;12.340;2023-05-02T10:38:35;15.20;90.60
23301;DHT22;11819;51.394;12.340;2023-05-02T10:41:18;15.30;90.30
23301;DHT22;11819;51.394;12.340;2023-05-02T10:43:46;15.30;90.20
23301;DHT22;11819;51.394;12.340;2023-05-02T10:46:34;15.30;89.50
23301;DHT22;11819;51.394;12.340;2023-05-02T10:49:08;15.20;88.80
23301;DHT22;11819;51.394;12.340;2023-05-02T10:51:36;15.10;88.90
23301;DHT22;11819;51.394;12.340;2023-05-02T10:54:24;15.00;88.80
23301;DHT22;11819;51.394;12.340;2023-05-02T10:57:06;14.90;88.50
23301;DHT22;11819;51.394;12.340;2023-05-02T10:59:39;14.90;89.20
23301;DHT22;11819;51.394;12.340;2023-05-02T11:05:06;14.80;89.50
23301;DHT22;11819;51.394;12.340;2023-05-02T11:07:38;14.80;90.20
23301;DHT22;11819;51.394;12.340;2023-05-02T11:15:08;14.90;90.00
23301;DHT22;11819;51.394;12.340;2023-05-02T11:18:01;15.00;90.00
23301;DHT22;11819;51.394;12.340;2023-05-02T11:20:27;15.10;89.20
23301;DHT22;11819;51.394;12.340;2023-05-02T11:22:55;15.20;88.90
23301;DHT22;11819;51.394;12.340;2023-05-02T11:25:38;15.20;88.20
23301;DHT22;11819;51.394;12.340;2023-05-02T11:28:06;15.10;89.20
23301;DHT22;11819;51.394;12.340;2023-05-02T11:30:40;14.90;90.10
23301;DHT22;11819;51.394;12.340;2023-05-02T11:35:35;14.30;91.40
23301;DHT22;11819;51.394;12.340;2023-05-02T11:38:09;14.00;91.90
23301;DHT22;11819;51.394;12.340;2023-05-02T11:40:34;13.70;92.60
23301;DHT22;11819;51.394;12.340;2023-05-02T11:43:12;13.50;93.50
23301;DHT22;11819;51.394;12.340;2023-05-02T11:45:39;13.30;94.30
23301;DHT22;11819;51.394;12.340;2023-05-02T11:48:06;13.30;95.10
23301;DHT22;11819;51.394;12.340;2023-05-02T11:50:32;13.20;95.40
23301;DHT22;11819;51.394;12.340;2023-05-02T11:52:59;13.10;95.50
23301;DHT22;11819;51.394;12.340;2023-05-02T11:55:25;13.10;95.80
23301;DHT22;11819;51.394;12.340;2023-05-02T11:57:51;13.10;96.00
23301;DHT22;11819;51.394;12.340;2023-05-02T12:00:17;13.10;95.60
23301;DHT22;11819;51.394;12.340;2023-05-02T12:02:45;13.00;95.80
23301;DHT22;11819;51.394;12.340;2023-05-02T12:05:13;13.00;96.10
23301;DHT22;11819;51.394;12.340;2023-05-02T12:07:43;13.00;96.20
23301;DHT22;11819;51.394;12.340;2023-05-02T12:10:10;13.00;96.20
23301;DHT22;11819;51.394;12.340;2023-05-02T12:12:36;13.00;96.10
23301;DHT22;11819;51.394;12.340;2023-05-02T12:15:08;13.10;95.90
23301;DHT22;11819;51.394;12.340;2023-05-02T12:17:46;13.10;95.80
23301;DHT22;11819;51.394;12.340;2023-05-02T12:20:13;13.10;95.50
23301;DHT22;11819;51.394;12.340;2023-05-02T12:22:40;13.20;95.40
23301;DHT22;11819;51.394;12.340;2023-05-02T12:25:06;13.20;95.10
23301;DHT22;11819;51.394;12.340;2023-05-02T12:27:32;13.30;95.10
23301;DHT22;11819;51.394;12.340;2023-05-02T12:29:59;13.30;95.00
23301;DHT22;11819;51.394;12.340;2023-05-02T12:32:32;13.30;94.70
23301;DHT22;11819;51.394;12.340;2023-05-02T12:35:01;13.30;94.90
23301;DHT22;11819;51.394;12.340;2023-05-02T12:37:28;13.40;94.40
23301;DHT22;11819;51.394;12.340;2023-05-02T12:39:55;13.40;94.30
23301;DHT22;11819;51.394;12.340;2023-05-02T12:42:25;13.50;94.10
23301;DHT22;11819;51.394;12.340;2023-05-02T12:44:52;13.40;93.60
23301;DHT22;11819;51.394;12.340;2023-05-02T12:47:21;13.50;93.50
23301;DHT22;11819;51.394;12.340;2023-05-02T12:49:48;13.50;93.40
23301;DHT22;11819;51.394;12.340;2023-05-02T12:52:15;13.50;93.30
23301;DHT22;11819;51.394;12.340;2023-05-02T12:54:41;13.60;92.80
23301;DHT22;11819;51.394;12.340;2023-05-02T12:57:07;13.70;93.10
23301;DHT22;11819;51.394;12.340;2023-05-02T12:59:32;13.70;92.60
23301;DHT22;11819;51.394;12.340;2023-05-02T13:01:59;13.80;92.40
23301;DHT22;11819;51.394;12.340;2023-05-02T13:04:39;13.80;92.00
23301;DHT22;11819;51.394;12.340;2023-05-02T13:07:06;13.80;91.30
23301;DHT22;11819;51.394;12.340;2023-05-02T13:09:32;13.80;90.70
23301;DHT22;11819;51.394;12.340;2023-05-02T13:11:58;13.80;90.40
23301;DHT22;11819;51.394;12.340;2023-05-02T13:14:24;13.70;91.00
23301;DHT22;11819;51.394;12.340;2023-05-02T13:16:50;13.60;91.00
23301;DHT22;11819;51.394;12.340;2023-05-02T13:19:19;13.50;91.00
23301;DHT22;11819;51.394;12.340;2023-05-02T13:21:45;13.40;90.50
23301;DHT22;11819;51.394;12.340;2023-05-02T13:24:11;13.30;90.60
23301;DHT22;11819;51.394;12.340;2023-05-02T13:26:37;13.30;90.90
23301;DHT22;11819;51.394;12.340;2023-05-02T13:29:03;13.20;91.00
23301;DHT22;11819;51.394;12.340;2023-05-02T13:31:28;13.20;91.10
23301;DHT22;11819;51.394;12.340;2023-05-02T13:33:54;13.20;91.10
23301;DHT22;11819;51.394;12.340;2023-05-02T13:36:20;13.20;90.90
23301;DHT22;11819;51.394;12.340;2023-05-02T13:38:45;13.20;91.00
23301;DHT22;11819;51.394;12.340;2023-05-02T13:41:11;13.10;91.00
23301;DHT22;11819;51.394;12.340;2023-05-02T13:43:36;13.10;91.00
23301;DHT22;11819;51.394;12.340;2023-05-02T13:46:03;13.10;90.70
23301;DHT22;11819;51.394;12.340;2023-05-02T13:48:29;13.10;90.50
23301;DHT22;11819;51.394;12.340;2023-05-02T13:50:54;13.10;90.30
23301;DHT22;11819;51.394;12.340;2023-05-02T13:53:20;13.00;89.80
23301;DHT22;11819;51.394;12.340;2023-05-02T13:55:46;13.00;89.40
23301;DHT22;11819;51.394;12.340;2023-05-02T13:58:11;13.00;89.70
23301;DHT22;11819;51.394;12.340;2023-05-02T14:00:40;13.00;90.10
23301;DHT22;11819;51.394;12.340;2023-05-02T14:03:06;13.10;89.70
23301;DHT22;11819;51.394;12.340;2023-05-02T14:05:35;13.10;89.00
23301;DHT22;11819;51.394;12.340;2023-05-02T14:08:01;13.10;89.00
23301;DHT22;11819;51.394;12.340;2023-05-02T14:10:27;13.10;88.20
23301;DHT22;11819;51.394;12.340;2023-05-02T14:12:52;13.10;88.70
23301;DHT22;11819;51.394;12.340;2023-05-02T14:15:18;13.20;89.40
23301;DHT22;11819;51.394;12.340;2023-05-02T14:17:45;13.30;88.40
23301;DHT22;11819;51.394;12.340;2023-05-02T14:20:10;13.50;88.00
23301;DHT22;11819;51.394;12.340;2023-05-02T14:22:36;13.60;86.70
23301;DHT22;11819;51.394;12.340;2023-05-02T14:25:02;13.80;85.60
23301;DHT22;11819;51.394;12.340;2023-05-02T14:27:27;14.00;84.70
23301;DHT22;11819;51.394;12.340;2023-05-02T14:29:53;14.30;84.80
23301;DHT22;11819;51.394;12.340;2023-05-02T14:32:21;14.60;82.90
23301;DHT22;11819;51.394;12.340;2023-05-02T14:34:47;14.80;80.00
23301;DHT22;11819;51.394;12.340;2023-05-02T14:37:12;15.00;79.10
23301;DHT22;11819;51.394;12.340;2023-05-02T14:39:38;15.20;78.90
23301;DHT22;11819;51.394;12.340;2023-05-02T14:42:04;15.50;78.20
23301;DHT22;11819;51.394;12.340;2023-05-02T14:44:30;15.60;77.80
23301;DHT22;11819;51.394;12.340;2023-05-02T14:46:56;15.50;77.90
23301;DHT22;11819;51.394;12.340;2023-05-02T14:49:21;15.50;78.50
23301;DHT22;11819;51.394;12.340;2023-05-02T14:51:48;15.60;77.50
23301;DHT22;11819;51.394;12.340;2023-05-02T14:54:14;15.40;77.20
23301;DHT22;11819;51.394;12.340;2023-05-02T14:56:41;15.30;76.90
23301;DHT22;11819;51.394;12.340;2023-05-02T14:59:08;15.00;76.30
23301;DHT22;11819;51.394;12.340;2023-05-02T15:01:34;14.70;77.00
23301;DHT22;11819;51.394;12.340;2023-05-02T15:04:01;14.60;76.60
23301;DHT22;11819;51.394;12.340;2023-05-02T15:06:30;14.40;77.00
23301;DHT22;11819;51.394;12.340;2023-05-02T15:08:56;14.30;77.40
23301;DHT22;11819;51.394;12.340;2023-05-02T15:11:22;14.20;78.50
23301;DHT22;11819;51.394;12.340;2023-05-02T15:13:47;14.10;79.50
23301;DHT22;11819;51.394;12.340;2023-05-02T15:16:14;14.10;79.50
23301;DHT22;11819;51.394;12.340;2023-05-02T15:18:39;14.00;80.00
23301;DHT22;11819;51.394;12.340;2023-05-02T15:21:05;13.90;80.20
23301;DHT22;11819;51.394;12.340;2023-05-02T15:23:31;13.80;80.20
23301;DHT22;11819;51.394;12.340;2023-05-02T15:25:56;13.80;80.10
23301;DHT22;11819;51.394;12.340;2023-05-02T15:28:22;13.70;78.90
23301;DHT22;11819;51.394;12.340;2023-05-02T15:30:48;13.70;79.40
23301;DHT22;11819;51.394;12.340;2023-05-02T15:33:13;13.80;80.60
23301;DHT22;11819;51.394;12.340;2023-05-02T15:35:52;14.00;80.00
23301;DHT22;11819;51.394;12.340;2023-05-02T15:38:19;14.10;78.70
23301;DHT22;11819;51.394;12.340;2023-05-02T15:40:56;14.10;79.20
23301;DHT22;11819;51.394;12.340;2023-05-02T15:43:22;14.00;79.00
23301;DHT22;11819;51.394;12.340;2023-05-02T15:45:55;13.90;79.30
23301;DHT22;11819;51.394;12.340;2023-05-02T15:48:22;13.90;79.70
23301;DHT22;11819;51.394;12.340;2023-05-02T15:50:48;13.90;76.70
23301;DHT22;11819;51.394;12.340;2023-05-02T15:53:14;13.90;76.50
23301;DHT22;11819;51.394;12.340;2023-05-02T15:55:41;13.90;76.00
23301;DHT22;11819;51.394;12.340;2023-05-02T15:58:08;13.90;75.20
23301;DHT22;11819;51.394;12.340;2023-05-02T16:00:34;13.80;74.10